Time;durP1;ratioP1;P1;durP2;ratioP2;P2;SDS_P1;SDS_P2;PMS_P1;PMS_P2;Temp;Humidity;BMP_temperature;BMP_pressure;BME280_temperature;BME280_humidity;BME280_pressure;Samples;Min_cycle;Max_cycle;Signal;HPM_P1;HPM_P2
2023/03/23 00:01:12;;;;;;;22.83;16.37;;;;;;;12.46;89.12;99496.97;5092444;28;20242;-66
2023/03/23 00:03:42;;;;;;;18.73;16.10;;;;;;;12.48;88.73;99499.44;5091289;28;20212;-67
2023/03/23 00:06:09;;;;;;;21.17;16.00;;;;;;;12.47;89.12;99493.31;5093461;28;20206;-67
2023/03/23 00:08:45;;;;;;;20.97;17.80;;;;;;;12.44;88.98;99493.72;5092432;28;20189;-67
2023/03/23 00:11:14;;;;;;;24.17;17.70;;;;;;;12.42;89.32;99492.28;5092669;28;20189;-67
2023/03/23 00:13:41;;;;;;;22.77;16.73;;;;;;;12.44;89.54;99493.72;5092102;28;20189;-67
2023/03/23 00:16:16;;;;;;;20.30;17.03;;;;;;;12.45;88.98;99494.53;5092264;28;20190;-66
2023/03/23 00:18:45;;;;;;;19.20;15.70;;;;;;;12.44;89.09;99485.72;5092313;28;20621;-67
2023/03/23 00:21:12;;;;;;;22.53;17.17;;;;;;;12.36;89.39;99485.09;5092982;28;20217;-68
2023/03/23 00:23:40;;;;;;;18.20;16.10;;;;;;;12.35;89.82;99494.97;5091927;28;20603;-67
2023/03/23 00:26:08;;;;;;;22.67;17.07;;;;;;;12.29;89.91;99493.09;5091844;28;20247;-68
2023/03/23 00:28:35;;;;;;;21.10;16.77;;;;;;;12.20;90.38;99490.84;5092196;28;20185;-68
2023/03/23 00:31:03;;;;;;;23.97;16.83;;;;;;;12.17;90.79;99491.28;5092154;28;20245;-68
2023/03/23 00:33:33;;;;;;;22.80;17.03;;;;;;;12.08;91.60;99490.66;5093106;28;20189;-68
2023/03/23 00:36:01;;;;;;;20.83;17.10;;;;;;;12.02;91.93;99493.34;5091824;28;20713;-68
2023/03/23 00:38:28;;;;;;;21.23;17.07;;;;;;;11.97;92.14;99491.28;5091758;28;20608;-68
2023/03/23 00:40:57;;;;;;;22.50;17.37;;;;;;;11.95;93.19;99485.34;5092021;28;20211;-68
2023/03/23 00:43:28;;;;;;;23.10;17.53;;;;;;;11.98;93.43;99482.28;5092083;28;20189;-68
2023/03/23 00:45:55;;;;;;;21.60;16.47;;;;;;;12.02;93.48;99486.19;5091801;28;20192;-68
2023/03/23 00:48:23;;;;;;;20.97;17.07;;;;;;;12.03;93.78;99485.16;5091728;28;20728;-68
2023/03/23 00:50:52;;;;;;;23.77;18.97;;;;;;;12.01;93.82;99481.84;5091708;28;20263;-67
2023/03/23 00:53:20;;;;;;;25.87;18.77;;;;;;;11.99;94.24;99483.91;5092265;28;20195;-67
2023/03/23 00:55:48;;;;;;;24.50;17.90;;;;;;;11.99;94.11;99480.44;5091665;28;20561;-67
2023/03/23 00:58:16;;;;;;;22.03;17.83;;;;;;;11.93;93.96;99473.28;5091642;28;20644;-67
2023/03/23 01:00:43;;;;;;;20.23;16.63;;;;;;;11.87;92.87;99480.22;5092624;28;20229;-67
2023/03/23 01:03:11;;;;;;;25.83;16.83;;;;;;;11.77;93.24;99474.50;5092145;28;20193;-67
2023/03/23 01:05:39;;;;;;;23.97;17.87;;;;;;;11.72;94.20;99468.97;5091893;28;20193;-67
2023/03/23 01:08:07;;;;;;;20.43;15.87;;;;;;;11.63;94.41;99475.50;5091871;28;20200;-67
2023/03/23 01:10:38;;;;;;;25.00;18.43;;;;;;;11.66;94.76;99467.13;5091826;28;20194;-67
2023/03/23 01:13:06;;;;;;;23.07;16.60;;;;;;;11.68;94.66;99465.06;5092179;28;20181;-67
2023/03/23 01:15:33;;;;;;;28.17;17.20;;;;;;;11.73;94.54;99467.97;5092552;28;20189;-67
2023/03/23 01:18:00;;;;;;;23.97;17.43;;;;;;;11.72;94.61;99468.97;5091433;28;20246;-67
2023/03/23 01:20:28;;;;;;;25.80;17.77;;;;;;;11.71;94.17;99475.31;5092267;28;20217;-68
2023/03/23 01:23:00;;;;;;;22.83;17.60;;;;;;;11.68;93.85;99475.72;5091764;28;20193;-68
2023/03/23 01:25:28;;;;;;;21.53;17.53;;;;;;;11.68;94.26;99469.59;5093176;28;20236;-67
2023/03/23 01:27:56;;;;;;;24.37;16.97;;;;;;;11.71;94.28;99472.66;5095262;28;20194;-68
2023/03/23 01:30:23;;;;;;;22.67;17.30;;;;;;;11.71;94.46;99469.19;5094893;28;20250;-68
2023/03/23 01:32:49;;;;;;;29.90;18.73;;;;;;;11.68;93.92;99475.72;5094885;28;20192;-68
2023/03/23 01:35:16;;;;;;;27.73;18.97;;;;;;;11.65;94.33;99469.97;5094841;28;20251;-67
2023/03/23 01:37:44;;;;;;;19.30;17.27;;;;;;;11.62;94.25;99476.53;5095109;28;20234;-66
2023/03/23 01:40:11;;;;;;;26.37;17.53;;;;;;;11.64;95.13;99476.34;5094942;28;20226;-66
2023/03/23 01:42:39;;;;;;;21.27;18.27;;;;;;;11.66;95.43;99482.25;5094791;28;20196;-66
2023/03/23 01:45:30;;;;;;;22.67;17.47;;;;;;;11.72;95.71;99476.94;5095738;28;20195;-66
2023/03/23 01:48:04;;;;;;;26.27;19.63;;;;;;;11.74;95.49;99480.22;5094653;28;20235;-66
2023/03/23 01:50:37;;;;;;;21.17;17.10;;;;;;;11.75;95.57;99491.69;5095155;28;20248;-66
2023/03/23 01:53:08;;;;;;;28.97;18.93;;;;;;;11.73;95.95;99478.59;5094506;28;20176;-66
2023/03/23 01:55:38;;;;;;;27.17;20.07;;;;;;;11.70;96.17;99486.16;5095061;28;20265;-67
2023/03/23 01:58:05;;;;;;;30.33;19.80;;;;;;;11.62;97.10;99473.03;5094645;28;20188;-66
2023/03/23 02:00:34;;;;;;;26.23;19.47;;;;;;;11.64;97.20;99479.78;5094273;28;20230;-66
2023/03/23 02:03:01;;;;;;;30.10;20.60;;;;;;;11.58;97.11;99480.59;5094276;28;20611;-66
2023/03/23 02:05:33;;;;;;;24.93;19.03;;;;;;;11.54;97.43;99479.34;5095042;28;20188;-66
2023/03/23 02:08:02;;;;;;;25.43;19.13;;;;;;;11.49;97.33;99480.97;5094880;28;20196;-66
2023/03/23 02:10:30;;;;;;;29.70;19.97;;;;;;;11.31;97.24;99478.88;5094431;28;20189;-67
2023/03/23 02:12:57;;;;;;;27.93;20.27;;;;;;;11.18;97.65;99473.53;5095206;28;20276;-66
2023/03/23 02:15:26;;;;;;;24.40;19.73;;;;;;;11.10;98.11;99475.56;5094020;28;20609;-67
2023/03/23 02:18:02;;;;;;;26.63;19.47;;;;;;;11.03;98.70;99475.56;5094821;28;20183;-66
2023/03/23 02:20:56;;;;;;;29.60;20.50;;;;;;;10.92;99.17;99484.09;5094493;28;20184;-66
2023/03/23 02:24:00;;;;;;;28.23;19.67;;;;;;;10.67;99.96;99485.63;5093957;28;20635;-66
2023/03/23 02:26:49;;;;;;;26.03;19.20;;;;;;;10.62;100.00;99488.03;5071559;28;20568;-67
2023/03/23 02:29:39;;;;;;;28.10;20.67;;;;;;;10.43;100.00;99486.09;5094979;28;20191;-67
2023/03/23 02:32:15;;;;;;;26.13;20.90;;;;;;;10.43;100.00;99488.75;5093885;28;20187;-66
2023/03/23 02:34:47;;;;;;;29.00;20.67;;;;;;;10.40;100.00;99489.13;5094628;28;20182;-67
2023/03/23 02:37:20;;;;;;;32.03;21.57;;;;;;;10.32;100.00;99479.47;5093583;28;20188;-67
2023/03/23 02:39:50;;;;;;;32.53;22.40;;;;;;;10.33;100.00;99485.59;5094570;28;20175;-67
2023/03/23 02:42:19;;;;;;;27.63;21.63;;;;;;;10.34;100.00;99481.94;5093784;28;20244;-67
2023/03/23 02:44:48;;;;;;;29.97;21.47;;;;;;;10.19;100.00;99482.06;5093804;28;20267;-67
2023/03/23 02:47:20;;;;;;;30.43;22.13;;;;;;;10.24;100.00;99479.63;5093449;28;20191;-67
2023/03/23 02:49:52;;;;;;;31.17;21.47;;;;;;;10.24;100.00;99484.94;5094007;28;20179;-66
2023/03/23 02:52:22;;;;;;;28.30;19.93;;;;;;;10.12;100.00;99494.44;5093709;28;20193;-67
2023/03/23 02:54:51;;;;;;;29.27;19.60;;;;;;;10.00;100.00;99497.78;5093636;28;20180;-67
2023/03/23 02:57:18;;;;;;;25.90;20.03;;;;;;;9.98;100.00;99494.50;5094428;28;20188;-67
2023/03/23 02:59:46;;;;;;;28.17;19.23;;;;;;;9.86;100.00;99490.72;5092221;28;20183;-67
2023/03/23 03:02:16;;;;;;;29.57;20.40;;;;;;;9.72;100.00;99495.09;5093702;28;20276;-67
2023/03/23 03:04:53;;;;;;;33.77;21.07;;;;;;;9.81;100.00;99493.16;5093277;28;20556;-67
2023/03/23 03:07:48;;;;;;;26.60;19.17;;;;;;;9.93;100.00;99499.56;5093100;28;20266;-66
2023/03/23 03:10:24;;;;;;;30.70;19.43;;;;;;;9.94;100.00;99498.56;5070940;28;20278;-67
2023/03/23 03:12:58;;;;;;;28.40;19.73;;;;;;;9.88;100.00;99500.13;5092992;28;20603;-66
2023/03/23 03:15:29;;;;;;;25.77;18.03;;;;;;;10.02;100.00;99495.75;5092946;28;20241;-66
2023/03/23 03:18:04;;;;;;;28.90;19.23;;;;;;;10.05;100.00;99500.72;5092932;28;20224;-66
2023/03/23 03:20:34;;;;;;;24.57;18.40;;;;;;;10.13;100.00;99497.94;5093480;28;20179;-66
2023/03/23 03:23:02;;;;;;;25.23;19.67;;;;;;;10.19;100.00;99505.13;5093570;28;20218;-66
2023/03/23 03:25:29;;;;;;;26.10;19.20;;;;;;;10.30;100.00;99507.25;5093071;28;20609;-67
2023/03/23 03:27:57;;;;;;;27.80;19.47;;;;;;;10.32;100.00;99502.53;5092638;28;20191;-67
2023/03/23 03:30:30;;;;;;;26.07;18.80;;;;;;;10.39;100.00;99514.03;5092919;28;20241;-66
2023/03/23 03:33:00;;;;;;;27.90;19.23;;;;;;;10.42;100.00;99508.34;5093232;28;20550;-66
2023/03/23 03:35:27;;;;;;;27.97;18.80;;;;;;;10.49;100.00;99512.69;5092891;28;20249;-66
2023/03/23 03:37:57;;;;;;;28.60;19.60;;;;;;;10.54;100.00;99512.09;5092528;28;20650;-66
2023/03/23 03:40:24;;;;;;;26.27;19.10;;;;;;;10.58;100.00;99518.66;5092825;28;20192;-66
2023/03/23 03:42:51;;;;;;;25.70;18.33;;;;;;;10.44;100.00;99507.13;5092341;28;20223;-67
2023/03/23 03:45:21;;;;;;;24.50;18.27;;;;;;;10.46;99.85;99523.69;5092405;28;20225;-66
2023/03/23 03:47:48;;;;;;;23.93;16.50;;;;;;;10.38;100.00;99513.22;5092170;28;20202;-66
2023/03/23 03:50:16;;;;;;;25.80;17.60;;;;;;;10.49;100.00;99525.94;5092341;28;20237;-66
2023/03/23 03:52:43;;;;;;;26.93;19.20;;;;;;;10.52;99.65;99519.44;5092601;28;20228;-67
2023/03/23 03:55:12;;;;;;;26.90;18.37;;;;;;;10.53;99.77;99527.22;5092600;28;20271;-66
2023/03/23 03:57:39;;;;;;;25.40;18.00;;;;;;;10.53;99.41;99527.22;5092262;28;20188;-66
2023/03/23 04:00:14;;;;;;;29.37;18.77;;;;;;;10.56;99.32;99529.47;5092788;28;20188;-66
2023/03/23 04:02:41;;;;;;;21.67;16.43;;;;;;;10.45;98.62;99508.78;5091355;28;20203;-67
2023/03/23 04:05:09;;;;;;;28.20;18.17;;;;;;;10.56;98.01;99531.31;5092147;28;20187;-66
2023/03/23 04:07:39;;;;;;;27.17;17.73;;;;;;;10.55;98.05;99527.00;5092644;28;20194;-66
2023/03/23 04:10:07;;;;;;;24.03;17.47;;;;;;;10.29;98.48;99502.91;5092073;28;20188;-66
2023/03/23 04:12:36;;;;;;;21.13;16.67;;;;;;;10.37;98.86;99532.81;5093171;28;20187;-66
2023/03/23 04:15:04;;;;;;;25.70;17.30;;;;;;;10.36;98.93;99531.19;5092312;28;20192;-67
2023/03/23 04:17:31;;;;;;;22.87;17.03;;;;;;;10.26;98.41;99513.94;5092342;28;20184;-67
2023/03/23 04:19:59;;;;;;;21.37;16.13;;;;;;;10.30;98.22;99521.31;5092020;28;20245;-67
2023/03/23 04:22:29;;;;;;;25.93;17.57;;;;;;;10.39;99.08;99529.97;5091903;28;20216;-66
2023/03/23 04:24:58;;;;;;;23.47;17.20;;;;;;;10.40;98.29;99539.56;5093108;28;20270;-67
2023/03/23 04:27:27;;;;;;;26.50;17.87;;;;;;;10.34;97.92;99548.31;5092459;28;20184;-66
2023/03/23 04:29:57;;;;;;;26.10;18.50;;;;;;;10.32;98.13;99539.72;5091879;28;20187;-65
2023/03/23 04:32:28;;;;;;;23.33;17.67;;;;;;;10.36;98.29;99540.97;5092916;28;20195;-66
2023/03/23 04:34:57;;;;;;;23.03;17.77;;;;;;;10.37;97.99;99534.63;5092480;28;20237;-65
2023/03/23 04:37:28;;;;;;;22.70;16.67;;;;;;;10.37;97.35;99537.28;5092391;28;20191;-65
2023/03/23 04:39:59;;;;;;;23.40;16.60;;;;;;;10.44;97.81;99538.16;5092114;28;20545;-66
2023/03/23 04:42:27;;;;;;;22.70;17.33;;;;;;;10.45;96.86;99534.50;5091759;28;20218;-66
2023/03/23 04:44:55;;;;;;;29.07;17.40;;;;;;;10.43;96.23;99541.84;5091764;28;20209;-65
2023/03/23 04:47:22;;;;;;;24.37;16.73;;;;;;;10.38;95.56;99546.91;5091717;28;20195;-65
2023/03/23 04:49:49;;;;;;;24.27;17.37;;;;;;;10.34;96.89;99543.81;5092586;28;20203;-64
2023/03/23 04:52:15;;;;;;;20.20;15.60;;;;;;;10.34;96.27;99545.66;5092815;28;20192;-64
2023/03/23 04:54:42;;;;;;;21.93;15.73;;;;;;;10.24;96.07;99550.47;5092185;28;20244;-63
2023/03/23 04:57:09;;;;;;;25.83;16.93;;;;;;;10.11;96.48;99553.84;5090613;28;20245;-63
2023/03/23 04:59:40;;;;;;;28.17;16.63;;;;;;;10.11;97.14;99545.91;5091970;28;20539;-65
2023/03/23 05:02:08;;;;;;;24.70;16.83;;;;;;;10.17;97.80;99542.47;5095807;28;20226;-64
2023/03/23 05:04:37;;;;;;;23.97;16.67;;;;;;;10.13;97.32;99546.50;5095861;28;20236;-64
2023/03/23 05:07:03;;;;;;;24.50;16.33;;;;;;;10.40;99.47;99536.91;5094423;28;20202;-65
2023/03/23 05:09:30;;;;;;;24.00;17.37;;;;;;;10.75;97.41;99530.63;5095180;28;20241;-68
2023/03/23 05:11:59;;;;;;;23.10;15.77;;;;;;;10.99;94.05;99548.72;5095169;28;20542;-67
2023/03/23 05:14:26;;;;;;;23.13;15.97;;;;;;;11.07;93.48;99549.38;5095048;28;20279;-67
2023/03/23 05:16:53;;;;;;;21.63;16.10;;;;;;;11.13;92.52;99547.75;5095560;28;20591;-66
2023/03/23 05:19:21;;;;;;;21.87;16.70;;;;;;;11.21;92.38;99558.22;5095284;28;20200;-66
2023/03/23 05:21:48;;;;;;;25.20;15.63;;;;;;;11.29;92.83;99559.88;5094878;28;20212;-66
2023/03/23 05:24:15;;;;;;;22.50;14.93;;;;;;;11.36;91.61;99555.41;5092437;28;20385;-66
2023/03/23 05:26:42;;;;;;;21.63;14.70;;;;;;;11.31;90.43;99557.84;5095381;28;20201;-66
2023/03/23 05:29:10;;;;;;;20.87;14.97;;;;;;;11.40;90.95;99564.63;5093382;28;20651;-66
2023/03/23 05:31:37;;;;;;;27.13;15.60;;;;;;;11.43;90.39;99565.03;5095370;28;20195;-67
2023/03/23 05:34:04;;;;;;;27.17;16.30;;;;;;;11.47;90.39;99568.94;5092634;28;20625;-66
2023/03/23 05:36:32;;;;;;;20.03;15.77;;;;;;;11.42;90.50;99574.06;5089128;28;20200;-65
2023/03/23 05:38:59;;;;;;;31.10;17.30;;;;;;;11.45;90.08;99572.84;5074433;28;20263;-66
2023/03/23 05:41:26;;;;;;;23.03;15.90;;;;;;;11.37;89.40;99584.47;5086051;28;20643;-65
2023/03/23 05:43:53;;;;;;;21.13;16.20;;;;;;;11.27;89.70;99591.97;5086370;28;20542;-65
2023/03/23 05:46:20;;;;;;;21.53;15.40;;;;;;;11.27;91.15;99593.84;5085415;28;20214;-66
2023/03/23 05:48:46;;;;;;;26.43;16.83;;;;;;;11.32;91.25;99589.56;5094860;28;20192;-67
2023/03/23 05:51:13;;;;;;;21.70;16.20;;;;;;;11.44;90.73;99590.66;5093945;28;20192;-66
2023/03/23 05:53:41;;;;;;;26.93;16.47;;;;;;;11.55;90.58;99592.72;5092373;28;20192;-67
2023/03/23 05:56:09;;;;;;;27.63;16.13;;;;;;;11.62;89.38;99598.09;5090133;28;20195;-65
2023/03/23 05:58:35;;;;;;;23.80;16.27;;;;;;;11.71;88.95;99597.72;5084091;28;20284;-66
2023/03/23 06:01:06;;;;;;;28.43;16.93;;;;;;;11.60;88.34;99606.25;5093701;28;20281;-66
2023/03/23 06:03:35;;;;;;;24.83;16.00;;;;;;;11.55;90.78;99599.91;5094937;28;20212;-67
2023/03/23 06:06:02;;;;;;;26.97;17.00;;;;;;;11.60;91.27;99606.25;5093707;28;20197;-66
2023/03/23 06:08:30;;;;;;;24.60;16.57;;;;;;;11.63;89.23;99611.19;5089979;28;20185;-65
2023/03/23 06:10:58;;;;;;;35.17;17.73;;;;;;;11.69;88.94;99621.06;5081155;28;20191;-65
2023/03/23 06:13:24;;;;;;;23.47;15.43;;;;;;;11.79;89.99;99616.16;5093909;28;20611;-67
2023/03/23 06:15:57;;;;;;;27.93;16.47;;;;;;;11.90;90.29;99618.25;5092814;28;20196;-68
2023/03/23 06:18:24;;;;;;;39.20;16.07;;;;;;;12.04;89.89;99614.56;5093167;28;20663;-68
2023/03/23 06:20:51;;;;;;;22.53;16.13;;;;;;;12.20;90.13;99614.19;5093922;28;20220;-67
2023/03/23 06:23:18;;;;;;;23.57;16.50;;;;;;;12.16;87.72;99622.81;5092145;28;20702;-69
2023/03/23 06:25:45;;;;;;;23.27;17.00;;;;;;;12.15;87.33;99621.97;5093020;28;20207;-68
2023/03/23 06:28:13;;;;;;;29.77;17.17;;;;;;;12.18;87.98;99616.25;5093661;28;20196;-68
2023/03/23 06:30:40;;;;;;;32.90;18.00;;;;;;;12.16;86.98;99620.94;5093401;28;20241;-68
2023/03/23 06:33:09;;;;;;;27.97;17.87;;;;;;;12.08;89.36;99620.34;5093575;28;20219;-66
2023/03/23 06:35:36;;;;;;;27.57;17.93;;;;;;;12.21;88.60;99623.81;5094370;28;20659;-68
2023/03/23 06:38:02;;;;;;;22.23;16.87;;;;;;;12.30;87.11;99619.13;5094172;28;20193;-67
2023/03/23 06:40:29;;;;;;;31.60;18.00;;;;;;;12.42;86.32;99628.94;5092236;28;20192;-66
2023/03/23 06:42:58;;;;;;;24.80;16.00;;;;;;;12.48;85.16;99633.47;5093074;28;20282;-67
2023/03/23 06:45:27;;;;;;;21.80;15.73;;;;;;;12.42;84.29;99628.16;5092603;28;20284;-70
2023/03/23 06:47:54;;;;;;;21.77;16.70;;;;;;;12.29;84.73;99625.47;5093617;28;20190;-66
2023/03/23 06:50:20;;;;;;;28.30;17.40;;;;;;;12.40;85.21;99641.66;5093631;28;20189;-72
2023/03/23 06:52:48;;;;;;;22.90;16.10;;;;;;;12.48;83.93;99643.28;5080130;28;20567;-67
2023/03/23 06:55:15;;;;;;;23.50;17.40;;;;;;;12.51;83.69;99643.72;5073826;28;20194;-69
2023/03/23 06:57:42;;;;;;;21.67;15.90;;;;;;;12.57;84.18;99647.44;5075485;28;20186;-69
2023/03/23 07:00:12;;;;;;;26.43;17.13;;;;;;;12.67;83.29;99637.16;5092356;28;20749;-67
2023/03/23 07:02:40;;;;;;;40.50;25.17;;;;;;;12.79;82.85;99641.69;5091446;28;20256;-67
2023/03/23 07:05:08;;;;;;;28.70;17.67;;;;;;;13.01;83.91;99645.78;5093392;28;20591;-67
2023/03/23 07:07:35;;;;;;;25.07;15.87;;;;;;;13.53;81.09;99658.97;5094138;28;20189;-67
2023/03/23 07:10:02;;;;;;;25.30;15.63;;;;;;;13.97;78.74;99656.31;5091849;28;20190;-67
2023/03/23 07:12:29;;;;;;;27.23;16.73;;;;;;;14.23;79.10;99658.88;5092867;28;20247;-66
2023/03/23 07:14:56;;;;;;;20.13;15.47;;;;;;;14.59;76.14;99669.69;5091726;28;20197;-65
2023/03/23 07:17:23;;;;;;;31.00;15.30;;;;;;;15.01;75.26;99663.59;5092864;28;20195;-66
2023/03/23 07:19:51;;;;;;;25.73;16.90;;;;;;;15.22;72.91;99671.19;5093234;28;20195;-65
2023/03/23 07:22:18;;;;;;;29.60;16.63;;;;;;;15.57;73.03;99666.91;5093357;28;20311;-65
2023/03/23 07:24:45;;;;;;;20.57;16.03;;;;;;;16.04;70.59;99667.97;5093636;28;20233;-65
2023/03/23 07:27:11;;;;;;;38.07;16.60;;;;;;;16.30;70.76;99667.63;5092708;28;20696;-65
2023/03/23 07:29:38;;;;;;;25.83;15.43;;;;;;;16.74;68.61;99679.78;5091185;28;20530;-66
2023/03/23 07:32:06;;;;;;;25.27;14.73;;;;;;;17.28;67.31;99685.66;5092655;28;20789;-66
2023/03/23 07:34:33;;;;;;;23.17;13.27;;;;;;;17.80;63.29;99689.22;5093066;28;20195;-66
2023/03/23 07:37:01;;;;;;;17.50;11.90;;;;;;;18.26;60.37;99689.84;5092897;28;20183;-67
2023/03/23 07:39:28;;;;;;;22.73;12.67;;;;;;;18.52;58.43;99685.78;5093317;28;20194;-67
2023/03/23 07:41:55;;;;;;;14.60;13.10;;;;;;;18.65;57.88;99682.78;5092761;28;20183;-65
2023/03/23 07:44:21;;;;;;;15.57;12.80;;;;;;;18.85;59.26;99688.50;5091003;28;20236;-66
2023/03/23 07:46:48;;;;;;;15.37;13.23;;;;;;;19.26;57.73;99690.81;5092173;28;20249;-66
2023/03/23 07:49:15;;;;;;;19.37;13.47;;;;;;;19.50;55.12;99692.22;5093162;28;20599;-66
2023/03/23 07:51:42;;;;;;;15.83;12.13;;;;;;;19.48;56.07;99689.00;5091481;28;20547;-67
2023/03/23 07:54:10;;;;;;;14.37;12.90;;;;;;;19.59;53.88;99693.44;5091725;28;20617;-67
2023/03/23 07:56:39;;;;;;;14.17;12.87;;;;;;;19.88;52.12;99692.19;5091537;28;20183;-67
2023/03/23 07:59:07;;;;;;;14.23;12.80;;;;;;;20.25;52.16;99691.31;5092392;28;20183;-67
2023/03/23 08:01:34;;;;;;;35.00;14.37;;;;;;;20.32;52.84;99685.72;5092114;28;20219;-66
2023/03/23 08:04:01;;;;;;;18.80;13.80;;;;;;;20.65;52.52;99690.91;5090926;28;20280;-68
2023/03/23 08:06:28;;;;;;;20.83;12.23;;;;;;;20.48;53.56;99684.81;5090823;28;20198;-69
2023/03/23 08:08:55;;;;;;;12.30;11.13;;;;;;;20.04;52.25;99683.22;5091953;28;20190;-67
2023/03/23 08:11:23;;;;;;;11.93;10.70;;;;;;;19.98;52.94;99678.84;5092582;28;20186;-68
2023/03/23 08:13:49;;;;;;;11.27;10.00;;;;;;;20.42;57.08;99675.03;5092507;28;20191;-67
2023/03/23 08:16:16;;;;;;;15.13;11.00;;;;;;;21.13;51.10;99688.09;5091958;28;20558;-68
2023/03/23 08:18:43;;;;;;;15.73;10.57;;;;;;;21.68;50.50;99685.72;5093110;28;20191;-70
2023/03/23 08:21:10;;;;;;;12.47;10.43;;;;;;;22.10;48.42;99689.19;5091915;28;20700;-69
2023/03/23 08:23:37;;;;;;;16.80;10.20;;;;;;;22.35;49.37;99672.19;5090688;28;20580;-69
2023/03/23 08:26:06;;;;;;;20.57;11.27;;;;;;;22.44;45.69;99676.81;5089615;28;20203;-69
2023/03/23 08:28:34;;;;;;;42.07;11.20;;;;;;;22.79;46.37;99671.44;5091920;28;20642;-71
2023/03/23 08:31:01;;;;;;;12.47;10.93;;;;;;;22.96;42.47;99672.00;5091933;28;20735;-73
2023/03/23 08:33:28;;;;;;;10.17;9.27;;;;;;;22.89;46.18;99665.22;5090787;28;20192;-68
2023/03/23 08:35:57;;;;;;;24.73;12.97;;;;;;;23.28;45.25;99669.81;5096325;28;20191;-70
2023/03/23 08:38:23;;;;;;;52.33;18.80;;;;;;;23.54;45.23;99662.44;5094941;28;20191;-71
2023/03/23 08:40:50;;;;;;;21.00;12.13;;;;;;;23.36;45.72;99653.00;5095893;28;20249;-70
2023/03/23 08:43:17;;;;;;;13.20;11.10;;;;;;;23.61;44.46;99652.91;5081696;28;20228;-72
2023/03/23 08:45:46;;;;;;;40.70;11.10;;;;;;;23.88;41.86;99661.50;5075797;28;20189;-70
2023/03/23 08:48:13;;;;;;;12.27;10.67;;;;;;;24.06;39.57;99643.81;5086927;28;20266;-70
2023/03/23 08:50:40;;;;;;;39.83;12.63;;;;;;;23.97;40.73;99650.91;5096172;28;20192;-68
2023/03/23 08:53:07;;;;;;;55.10;13.50;;;;;;;24.12;40.48;99664.38;5094298;28;20669;-69
2023/03/23 08:55:34;;;;;;;22.03;12.33;;;;;;;23.83;39.38;99661.53;5095868;28;20187;-70
2023/03/23 08:58:01;;;;;;;14.13;12.73;;;;;;;23.29;40.44;99652.47;5094677;28;20191;-68
2023/03/23 09:00:28;;;;;;;12.53;10.53;;;;;;;23.42;43.13;99654.63;5095472;28;20218;-68
2023/03/23 09:02:56;;;;;;;10.40;9.50;;;;;;;23.35;40.72;99658.69;5096295;28;20538;-67
2023/03/23 09:05:25;;;;;;;9.73;8.80;;;;;;;23.56;40.66;99665.69;5095363;28;20191;-66
2023/03/23 09:07:54;;;;;;;8.37;7.87;;;;;;;23.83;42.09;99649.84;5095829;28;20184;-67
2023/03/23 09:10:22;;;;;;;11.67;10.13;;;;;;;24.22;40.60;99653.50;5094105;28;20241;-68
2023/03/23 09:12:49;;;;;;;10.00;9.20;;;;;;;24.29;40.69;99652.06;5095228;28;20647;-68
2023/03/23 09:15:17;;;;;;;21.10;10.60;;;;;;;24.21;39.02;99658.09;5095240;28;20196;-68
2023/03/23 09:17:46;;;;;;;17.47;10.30;;;;;;;24.19;38.62;99654.88;5095229;28;20243;-68
2023/03/23 09:20:16;;;;;;;80.87;12.93;;;;;;;23.76;40.12;99657.47;5095375;28;20242;-68
2023/03/23 09:22:44;;;;;;;10.97;9.97;;;;;;;23.45;38.35;99648.66;5095297;28;20249;-67
2023/03/23 09:25:13;;;;;;;15.93;9.40;;;;;;;23.22;41.16;99643.81;5095419;28;20191;-67
2023/03/23 09:27:40;;;;;;;19.03;9.30;;;;;;;22.78;40.20;99652.78;5095848;28;20184;-68
2023/03/23 09:30:10;;;;;;;72.10;13.10;;;;;;;22.60;40.83;99646.00;5093405;28;20655;-67
2023/03/23 09:32:37;;;;;;;8.43;7.90;;;;;;;22.59;39.90;99644.38;5094917;28;20201;-67
2023/03/23 09:35:07;;;;;;;18.63;8.57;;;;;;;22.53;42.08;99650.84;5095816;28;20191;-67
2023/03/23 09:37:36;;;;;;;9.77;7.30;;;;;;;22.62;40.54;99635.69;5094898;28;20270;-67
2023/03/23 09:40:04;;;;;;;19.63;8.33;;;;;;;22.86;40.44;99642.19;5095073;28;20187;-67
2023/03/23 09:42:41;;;;;;;7.67;7.07;;;;;;;22.99;39.52;99638.94;5094926;28;20219;-67
2023/03/23 09:45:17;;;;;;;13.37;10.87;;;;;;;22.71;37.99;99639.47;5095565;28;20183;-68
2023/03/23 09:47:50;;;;;;;5.90;5.60;;;;;;;22.01;37.84;99642.06;5095140;28;20228;-68
2023/03/23 09:50:20;;;;;;;7.07;5.53;;;;;;;21.70;39.77;99639.50;5074439;28;20180;-67
2023/03/23 09:52:55;;;;;;;12.20;6.10;;;;;;;21.71;43.02;99636.56;5074411;28;20196;-68
2023/03/23 09:55:23;;;;;;;14.93;6.13;;;;;;;21.83;42.12;99634.44;5074309;28;20627;-68
2023/03/23 09:57:56;;;;;;;5.67;5.27;;;;;;;21.75;40.71;99632.25;5074533;28;20191;-68
2023/03/23 10:00:27;;;;;;;4.93;4.57;;;;;;;21.78;41.00;99631.72;5074669;28;20231;-68
2023/03/23 10:03:02;;;;;;;5.00;4.60;;;;;;;21.90;40.55;99618.78;5074064;28;20191;-68
2023/03/23 10:05:33;;;;;;;6.43;5.93;;;;;;;22.01;39.07;99636.66;5074110;28;20237;-68
2023/03/23 10:08:03;;;;;;;7.73;6.80;;;;;;;22.03;39.09;99623.69;5074769;28;20198;-67
2023/03/23 10:10:40;;;;;;;30.70;8.60;;;;;;;22.37;40.86;99629.44;5074162;28;20184;-68
2023/03/23 10:13:16;;;;;;;8.80;8.20;;;;;;;22.53;38.69;99628.38;5074764;28;20249;-67
2023/03/23 10:15:44;;;;;;;17.57;8.87;;;;;;;22.82;37.72;99619.44;5075026;28;20554;-68
2023/03/23 10:18:16;;;;;;;9.87;7.53;;;;;;;22.84;37.52;99630.84;5074201;28;20610;-68
2023/03/23 10:20:48;;;;;;;20.73;6.77;;;;;;;22.71;36.87;99625.16;5074568;28;20550;-67
2023/03/23 10:23:41;;;;;;;4.10;3.80;;;;;;;22.21;36.37;99620.47;5073241;28;20216;-67
2023/03/23 10:26:17;;;;;;;4.57;4.30;;;;;;;21.80;36.78;99629.56;5073729;28;20191;-67
2023/03/23 10:28:45;;;;;;;4.07;3.77;;;;;;;21.84;36.69;99622.53;5084287;28;20260;-67
2023/03/23 10:31:17;;;;;;;4.83;4.43;;;;;;;22.16;37.03;99617.75;5070883;28;20241;-68
2023/03/23 10:33:46;;;;;;;4.73;4.33;;;;;;;22.26;37.06;99615.06;5074274;28;20194;-67
2023/03/23 10:36:18;;;;;;;5.40;5.03;;;;;;;22.26;35.93;99612.34;5074436;28;20249;-68
2023/03/23 10:38:50;;;;;;;5.63;4.87;;;;;;;22.30;36.46;99612.66;5073719;28;20192;-68
2023/03/23 10:41:19;;;;;;;8.03;5.13;;;;;;;22.20;37.27;99613.44;5074289;28;20184;-67
2023/03/23 10:43:49;;;;;;;6.30;5.90;;;;;;;22.01;37.19;99609.59;5073092;28;20220;-66
2023/03/23 10:46:23;;;;;;;8.67;5.90;;;;;;;21.82;37.07;99610.34;5073459;28;20188;-67
2023/03/23 10:48:53;;;;;;;5.93;5.43;;;;;;;21.99;36.93;99600.13;5088910;28;20186;-67
2023/03/23 10:51:33;;;;;;;6.63;6.00;;;;;;;22.13;37.05;99601.25;5093323;28;20187;-68
2023/03/23 10:54:02;;;;;;;5.70;5.40;;;;;;;22.49;35.79;99598.34;5094353;28;20183;-67
2023/03/23 10:56:36;;;;;;;14.57;5.73;;;;;;;22.67;35.97;99596.97;5093133;28;20187;-68
2023/03/23 10:59:13;;;;;;;5.73;5.43;;;;;;;22.76;35.87;99579.09;5094099;28;20562;-69
2023/03/23 11:01:45;;;;;;;12.70;6.40;;;;;;;22.99;35.51;99595.56;5078209;28;20721;-67
2023/03/23 11:04:14;;;;;;;6.70;5.87;;;;;;;22.99;35.51;99584.75;5090931;28;20320;-67
2023/03/23 11:06:46;;;;;;;46.73;8.90;;;;;;;23.05;37.10;99577.41;5094193;28;20248;-67
2023/03/23 11:09:17;;;;;;;6.07;5.57;;;;;;;22.99;35.30;99586.66;5093676;28;20218;-68
2023/03/23 11:11:49;;;;;;;4.90;4.60;;;;;;;22.04;35.27;99586.59;5093280;28;20613;-67
2023/03/23 11:14:18;;;;;;;6.70;5.93;;;;;;;22.05;37.00;99578.22;5094089;28;20244;-67
2023/03/23 11:16:50;;;;;;;5.10;4.77;;;;;;;21.88;36.67;99580.34;5092449;28;20192;-67
2023/03/23 11:19:24;;;;;;;8.00;7.10;;;;;;;21.36;38.47;99579.59;5092870;28;20183;-67
2023/03/23 11:21:53;;;;;;;5.40;5.07;;;;;;;21.32;38.47;99575.81;5092233;28;20183;-67
2023/03/23 11:24:23;;;;;;;12.23;5.43;;;;;;;21.10;38.49;99579.75;5092142;28;20215;-67
2023/03/23 11:26:53;;;;;;;6.33;4.70;;;;;;;20.90;39.14;99579.59;5090672;28;20716;-67
2023/03/23 11:29:22;;;;;;;10.03;5.33;;;;;;;20.92;39.05;99572.91;5089873;28;20201;-69